SAS954 ENGM-LOWI
Flight info
| Callsign | SAS954 |
|---|---|
| Flight time | 1h 55m |
| Altitude | 39000 |
| Route | ENGM/01R VIPPA DCT ESOSI DCT LOMPU DCT AKOSI M736 RDG/N0452F400 M736 TULSI TULSI3A |
| Aircraft | A333/H-SDE3GHIJ2J3J5M1RVWXY/LB2D1 |
Departure
| Time | 2026-05-04 09:01 |
|---|---|
| Airport | Oslo-Gardermoen International Airport (ENGM) |
Arrival
| Time | 2026-05-04 10:56 |
|---|---|
| Airport | Innsbruck Airport (LOWI) |
| Time | Latitude | Longitude | Altitude | Speed | Heading |
|---|---|---|---|---|---|
| 2026-05-04 08:40 | 60.19415 | 11.10662 | 683 ft | 0 kts | 204° |
| 2026-05-04 08:49 | 60.19422 | 11.10668 | 680 ft | 3 kts | 204° |
| 2026-05-04 08:50 | 60.19503 | 11.10679 | 676 ft | 0 kts | 105° |
| 2026-05-04 08:52 | 60.19502 | 11.10680 | 676 ft | 1 kts | 105° |
| 2026-05-04 08:52 | 60.19493 | 11.10741 | 677 ft | 9 kts | 107° |
| 2026-05-04 08:52 | 60.19468 | 11.10902 | 680 ft | 13 kts | 107° |
| 2026-05-04 08:53 | 60.19439 | 11.11104 | 681 ft | 16 kts | 105° |
| 2026-05-04 08:54 | 60.18607 | 11.10813 | 676 ft | 19 kts | 200° |
| 2026-05-04 08:55 | 60.18478 | 11.10730 | 678 ft | 20 kts | 197° |
| 2026-05-04 08:55 | 60.18341 | 11.10651 | 679 ft | 21 kts | 197° |
| 2026-05-04 08:55 | 60.18196 | 11.10563 | 679 ft | 22 kts | 197° |
| 2026-05-04 08:55 | 60.18045 | 11.10479 | 678 ft | 23 kts | 193° |
| 2026-05-04 08:57 | 60.17955 | 11.10994 | 678 ft | 72 kts | 17° |
| 2026-05-04 09:01 | 60.15534 | 11.37081 | 8289 ft | 268 kts | 206° |
| 2026-05-04 09:01 | 60.13820 | 11.35610 | 9362 ft | 267 kts | 209° |
| 2026-05-04 09:01 | 60.12120 | 11.34060 | 10174 ft | 273 kts | 210° |
| 2026-05-04 09:01 | 60.10311 | 11.32448 | 10533 ft | 294 kts | 208° |
| 2026-05-04 09:02 | 60.08356 | 11.30815 | 10908 ft | 313 kts | 206° |
| 2026-05-04 09:02 | 60.06293 | 11.29216 | 11599 ft | 321 kts | 206° |
| 2026-05-04 09:02 | 60.04183 | 11.27669 | 12430 ft | 324 kts | 205° |
| 2026-05-04 09:02 | 60.02071 | 11.26172 | 13348 ft | 324 kts | 205° |
| 2026-05-04 09:03 | 59.99937 | 11.24670 | 14126 ft | 327 kts | 205° |
| 2026-05-04 09:03 | 59.97810 | 11.23164 | 14775 ft | 331 kts | 206° |
| 2026-05-04 09:03 | 59.95620 | 11.21603 | 15417 ft | 337 kts | 206° |
| 2026-05-04 09:03 | 59.93385 | 11.20002 | 15913 ft | 347 kts | 206° |
| 2026-05-04 09:04 | 59.91061 | 11.18329 | 16208 ft | 363 kts | 206° |
| 2026-05-04 09:04 | 59.88651 | 11.16596 | 16516 ft | 376 kts | 206° |
| 2026-05-04 09:04 | 59.86204 | 11.14848 | 17053 ft | 381 kts | 206° |
| 2026-05-04 09:04 | 59.83678 | 11.13057 | 17707 ft | 384 kts | 206° |
| 2026-05-04 09:05 | 59.81144 | 11.11267 | 18285 ft | 388 kts | 206° |
| 2026-05-04 09:05 | 59.78594 | 11.09470 | 18860 ft | 390 kts | 206° |
| 2026-05-04 09:05 | 59.76036 | 11.07667 | 19424 ft | 392 kts | 206° |
| 2026-05-04 09:05 | 59.73445 | 11.05837 | 19970 ft | 394 kts | 206° |
| 2026-05-04 09:06 | 59.70860 | 11.04012 | 20476 ft | 397 kts | 205° |
| 2026-05-04 09:07 | 59.52245 | 10.90946 | 23906 ft | 415 kts | 205° |
| 2026-05-04 09:08 | 59.49515 | 10.89039 | 24315 ft | 418 kts | 205° |
| 2026-05-04 09:08 | 59.46756 | 10.87121 | 24719 ft | 421 kts | 205° |
| 2026-05-04 09:08 | 59.43989 | 10.85202 | 25128 ft | 424 kts | 205° |
| 2026-05-04 09:08 | 59.41196 | 10.83268 | 25405 ft | 428 kts | 205° |
| 2026-05-04 09:09 | 59.38375 | 10.81318 | 25785 ft | 431 kts | 205° |
| 2026-05-04 09:09 | 59.35536 | 10.79361 | 26200 ft | 433 kts | 205° |
| 2026-05-04 09:09 | 59.32684 | 10.77396 | 26582 ft | 436 kts | 205° |
| 2026-05-04 09:09 | 59.29815 | 10.75423 | 27206 ft | 438 kts | 205° |
| 2026-05-04 09:10 | 59.26922 | 10.73435 | 27594 ft | 441 kts | 205° |
| 2026-05-04 09:10 | 59.24016 | 10.71443 | 27942 ft | 444 kts | 205° |
| 2026-05-04 09:10 | 59.21129 | 10.69467 | 28299 ft | 446 kts | 205° |
| 2026-05-04 09:10 | 59.18189 | 10.67458 | 28626 ft | 449 kts | 205° |
| 2026-05-04 09:11 | 59.15234 | 10.65443 | 28867 ft | 452 kts | 204° |
| 2026-05-04 09:11 | 59.12238 | 10.63402 | 29063 ft | 457 kts | 204° |
| 2026-05-04 09:11 | 59.09236 | 10.61362 | 29397 ft | 459 kts | 204° |
| 2026-05-04 09:11 | 59.06212 | 10.59314 | 29582 ft | 461 kts | 204° |
| 2026-05-04 09:12 | 59.03166 | 10.57253 | 29897 ft | 463 kts | 204° |
| 2026-05-04 09:12 | 59.01148 | 10.55890 | 30115 ft | 464 kts | 204° |
| 2026-05-04 09:14 | 58.79808 | 10.41579 | 32529 ft | 464 kts | 204° |
| 2026-05-04 09:14 | 58.76760 | 10.39551 | 32899 ft | 463 kts | 204° |
| 2026-05-04 09:14 | 58.73723 | 10.37533 | 33269 ft | 463 kts | 204° |
| 2026-05-04 09:14 | 58.70670 | 10.35508 | 33626 ft | 462 kts | 204° |
| 2026-05-04 09:15 | 58.67632 | 10.33497 | 33949 ft | 462 kts | 204° |
| 2026-05-04 09:15 | 58.64622 | 10.31506 | 34208 ft | 462 kts | 204° |
| 2026-05-04 09:15 | 58.61543 | 10.29691 | 34426 ft | 466 kts | 199° |
| 2026-05-04 09:15 | 58.58327 | 10.28578 | 34624 ft | 473 kts | 191° |
| 2026-05-04 09:17 | 58.31633 | 10.34218 | 36643 ft | 484 kts | 177° |
| 2026-05-04 09:18 | 58.28300 | 10.35081 | 36882 ft | 484 kts | 177° |
| 2026-05-04 09:18 | 58.24959 | 10.35935 | 37113 ft | 484 kts | 177° |
| 2026-05-04 09:18 | 58.21613 | 10.36784 | 37358 ft | 484 kts | 177° |
| 2026-05-04 09:18 | 58.18275 | 10.37628 | 37577 ft | 484 kts | 177° |
| 2026-05-04 09:19 | 58.14933 | 10.38471 | 37828 ft | 485 kts | 177° |
| 2026-05-04 09:19 | 58.11593 | 10.39313 | 38041 ft | 485 kts | 177° |
| 2026-05-04 09:19 | 58.08246 | 10.40156 | 38253 ft | 485 kts | 177° |
| 2026-05-04 09:19 | 58.04901 | 10.40997 | 38469 ft | 485 kts | 177° |
| 2026-05-04 09:20 | 58.01558 | 10.41836 | 38630 ft | 485 kts | 177° |
| 2026-05-04 09:20 | 57.98217 | 10.42674 | 38798 ft | 485 kts | 177° |
| 2026-05-04 09:20 | 57.91566 | 10.44338 | 38816 ft | 484 kts | 177° |
| 2026-05-04 09:21 | 57.84898 | 10.46000 | 38818 ft | 483 kts | 177° |
| 2026-05-04 09:21 | 57.78236 | 10.47653 | 38826 ft | 483 kts | 177° |
| 2026-05-04 09:22 | 57.71583 | 10.49297 | 38823 ft | 483 kts | 177° |
| 2026-05-04 09:22 | 57.64912 | 10.50940 | 38827 ft | 482 kts | 177° |
| 2026-05-04 09:23 | 57.58295 | 10.52564 | 38838 ft | 482 kts | 177° |
| 2026-05-04 09:23 | 57.51637 | 10.54192 | 38839 ft | 483 kts | 177° |
| 2026-05-04 09:25 | 57.24994 | 10.60647 | 38850 ft | 482 kts | 177° |
| 2026-05-04 09:26 | 57.18339 | 10.62245 | 38837 ft | 482 kts | 177° |
| 2026-05-04 09:26 | 57.11679 | 10.63838 | 38853 ft | 482 kts | 177° |
| 2026-05-04 09:27 | 57.05024 | 10.65424 | 38853 ft | 482 kts | 177° |
| 2026-05-04 09:27 | 56.98401 | 10.66998 | 38868 ft | 482 kts | 177° |
| 2026-05-04 09:28 | 56.91760 | 10.68570 | 38848 ft | 481 kts | 177° |
| 2026-05-04 09:28 | 56.85117 | 10.70136 | 38868 ft | 481 kts | 177° |
| 2026-05-04 09:29 | 56.78487 | 10.71693 | 38878 ft | 480 kts | 177° |
| 2026-05-04 09:29 | 56.71853 | 10.73246 | 38878 ft | 480 kts | 177° |
| 2026-05-04 09:30 | 56.65221 | 10.74793 | 38886 ft | 480 kts | 177° |
| 2026-05-04 09:30 | 56.58574 | 10.76338 | 38899 ft | 480 kts | 177° |
| 2026-05-04 09:31 | 56.51962 | 10.77870 | 38901 ft | 480 kts | 177° |
| 2026-05-04 09:31 | 56.45327 | 10.79401 | 38907 ft | 480 kts | 177° |
| 2026-05-04 09:32 | 56.38702 | 10.80925 | 38908 ft | 480 kts | 177° |
| 2026-05-04 09:34 | 56.12284 | 10.86949 | 38919 ft | 479 kts | 177° |
| 2026-05-04 09:34 | 56.06806 | 10.88187 | 38922 ft | 479 kts | 177° |
| 2026-05-04 09:35 | 56.00231 | 10.89669 | 38925 ft | 478 kts | 177° |
| 2026-05-04 09:35 | 55.93625 | 10.91153 | 38924 ft | 478 kts | 177° |
| 2026-05-04 09:37 | 55.67192 | 10.97038 | 38938 ft | 479 kts | 177° |
| 2026-05-04 09:38 | 55.60605 | 10.98493 | 38941 ft | 479 kts | 177° |
| 2026-05-04 09:38 | 55.53987 | 10.99950 | 38941 ft | 479 kts | 177° |
| 2026-05-04 09:39 | 55.47366 | 11.01402 | 38947 ft | 479 kts | 177° |
| 2026-05-04 09:39 | 55.40740 | 11.02850 | 38947 ft | 479 kts | 177° |
| 2026-05-04 09:40 | 55.34118 | 11.04293 | 38949 ft | 479 kts | 177° |
| 2026-05-04 09:40 | 55.27504 | 11.05728 | 38938 ft | 479 kts | 177° |
| 2026-05-04 09:42 | 55.01014 | 11.11432 | 38935 ft | 480 kts | 177° |
| 2026-05-04 09:43 | 54.94388 | 11.12847 | 38963 ft | 480 kts | 177° |
| 2026-05-04 09:43 | 54.87757 | 11.14258 | 38963 ft | 480 kts | 177° |
| 2026-05-04 09:44 | 54.81128 | 11.15664 | 38963 ft | 480 kts | 177° |
| 2026-05-04 09:46 | 54.54627 | 11.21217 | 38968 ft | 480 kts | 177° |
| 2026-05-04 09:46 | 54.47980 | 11.22552 | 38945 ft | 480 kts | 177° |
| 2026-05-04 09:47 | 54.41341 | 11.23880 | 38962 ft | 480 kts | 177° |
| 2026-05-04 09:49 | 54.14930 | 11.29138 | 38966 ft | 477 kts | 177° |
| 2026-05-04 09:51 | 53.91825 | 11.33684 | 38967 ft | 478 kts | 177° |
| 2026-05-04 09:51 | 53.85201 | 11.34978 | 38968 ft | 479 kts | 177° |
| 2026-05-04 09:52 | 53.78619 | 11.36260 | 38968 ft | 479 kts | 177° |
| 2026-05-04 09:52 | 53.71994 | 11.37547 | 38962 ft | 479 kts | 177° |
| 2026-05-04 09:53 | 53.65370 | 11.38829 | 38967 ft | 480 kts | 177° |
| 2026-05-04 09:53 | 53.58723 | 11.40110 | 38964 ft | 480 kts | 177° |
| 2026-05-04 09:54 | 53.52081 | 11.41388 | 38965 ft | 480 kts | 177° |
| 2026-05-04 09:54 | 53.45441 | 11.42661 | 38954 ft | 480 kts | 177° |
| 2026-05-04 09:55 | 53.38808 | 11.43930 | 38969 ft | 479 kts | 177° |
| 2026-05-04 09:55 | 53.32187 | 11.45191 | 38970 ft | 479 kts | 177° |
| 2026-05-04 09:56 | 53.25562 | 11.46448 | 38973 ft | 479 kts | 177° |
| 2026-05-04 09:56 | 53.18971 | 11.47696 | 38973 ft | 479 kts | 177° |
| 2026-05-04 09:57 | 53.12364 | 11.48943 | 38974 ft | 477 kts | 178° |
| 2026-05-04 09:57 | 53.05767 | 11.50185 | 38979 ft | 477 kts | 178° |
| 2026-05-04 09:58 | 52.99169 | 11.51422 | 38976 ft | 477 kts | 178° |
| 2026-05-04 09:58 | 52.92578 | 11.52654 | 38975 ft | 477 kts | 178° |
| 2026-05-04 10:00 | 52.70556 | 11.56745 | 39915 ft | 477 kts | 177° |
| 2026-05-04 10:00 | 52.67252 | 11.57355 | 39975 ft | 478 kts | 178° |
| 2026-05-04 10:04 | 52.21334 | 11.65740 | 39988 ft | 473 kts | 177° |
| 2026-05-04 10:04 | 52.14784 | 11.66922 | 39989 ft | 472 kts | 178° |
| 2026-05-04 10:05 | 52.08244 | 11.68100 | 39988 ft | 471 kts | 178° |
| 2026-05-04 10:05 | 52.01723 | 11.69269 | 40005 ft | 471 kts | 178° |
| 2026-05-04 10:06 | 51.95207 | 11.70434 | 40011 ft | 471 kts | 178° |
| 2026-05-04 10:06 | 51.88726 | 11.71589 | 40012 ft | 470 kts | 178° |
| 2026-05-04 10:08 | 51.66001 | 11.75615 | 40008 ft | 470 kts | 178° |
| 2026-05-04 10:08 | 51.59490 | 11.76762 | 40005 ft | 469 kts | 178° |
| 2026-05-04 10:09 | 51.52975 | 11.77905 | 40004 ft | 469 kts | 178° |
| 2026-05-04 10:09 | 51.46487 | 11.79040 | 40009 ft | 469 kts | 178° |
| 2026-05-04 10:10 | 51.39983 | 11.80175 | 40012 ft | 469 kts | 178° |
| 2026-05-04 10:10 | 51.33542 | 11.81296 | 40013 ft | 469 kts | 178° |
| 2026-05-04 10:11 | 51.27059 | 11.82420 | 40013 ft | 469 kts | 178° |
| 2026-05-04 10:11 | 51.20565 | 11.83543 | 39996 ft | 469 kts | 177° |
| 2026-05-04 10:12 | 51.14087 | 11.84662 | 40012 ft | 468 kts | 177° |
| 2026-05-04 10:12 | 51.07613 | 11.85776 | 40013 ft | 468 kts | 177° |
| 2026-05-04 10:13 | 51.01141 | 11.86886 | 40013 ft | 468 kts | 177° |
| 2026-05-04 10:13 | 50.94655 | 11.87996 | 40018 ft | 469 kts | 177° |
| 2026-05-04 10:14 | 50.88161 | 11.89102 | 40003 ft | 470 kts | 177° |
| 2026-05-04 10:16 | 50.62151 | 11.93510 | 40023 ft | 470 kts | 177° |
| 2026-05-04 10:16 | 50.55651 | 11.94603 | 40029 ft | 470 kts | 177° |
| 2026-05-04 10:17 | 50.49181 | 11.95689 | 40025 ft | 470 kts | 177° |
| 2026-05-04 10:19 | 50.23228 | 12.00013 | 40045 ft | 470 kts | 177° |
| 2026-05-04 10:19 | 50.16721 | 12.01090 | 40040 ft | 470 kts | 176° |
| 2026-05-04 10:20 | 50.10218 | 12.02163 | 40037 ft | 470 kts | 177° |
| 2026-05-04 10:20 | 50.03712 | 12.03234 | 40029 ft | 470 kts | 177° |
| 2026-05-04 10:21 | 49.97215 | 12.04301 | 40023 ft | 470 kts | 176° |
| 2026-05-04 10:21 | 49.90703 | 12.05367 | 40055 ft | 469 kts | 176° |
| 2026-05-04 10:22 | 49.80963 | 12.06956 | 40081 ft | 469 kts | 177° |
| 2026-05-04 10:23 | 49.74514 | 12.08220 | 40095 ft | 471 kts | 170° |
| 2026-05-04 10:25 | 49.52519 | 12.31020 | 40015 ft | 482 kts | 144° |
| 2026-05-04 10:25 | 49.47299 | 12.37457 | 40016 ft | 482 kts | 144° |
| 2026-05-04 10:26 | 49.42040 | 12.43874 | 40018 ft | 482 kts | 144° |
| 2026-05-04 10:26 | 49.36617 | 12.49875 | 40018 ft | 478 kts | 154° |
| 2026-05-04 10:27 | 49.30489 | 12.53326 | 40019 ft | 469 kts | 173° |
| 2026-05-04 10:27 | 49.24020 | 12.53843 | 40018 ft | 466 kts | 183° |
| 2026-05-04 10:28 | 49.17529 | 12.53505 | 40015 ft | 466 kts | 185° |
| 2026-05-04 10:28 | 49.11047 | 12.53068 | 40021 ft | 466 kts | 185° |
| 2026-05-04 10:29 | 49.04569 | 12.52691 | 40012 ft | 466 kts | 185° |
| 2026-05-04 10:29 | 48.98098 | 12.52243 | 39921 ft | 464 kts | 185° |
| 2026-05-04 10:29 | 48.94881 | 12.51991 | 39672 ft | 464 kts | 185° |
| 2026-05-04 10:30 | 48.91648 | 12.51733 | 39207 ft | 465 kts | 185° |
| 2026-05-04 10:30 | 48.88409 | 12.51476 | 38441 ft | 465 kts | 185° |
| 2026-05-04 10:30 | 48.85206 | 12.51224 | 37765 ft | 467 kts | 185° |
| 2026-05-04 10:30 | 48.81961 | 12.50972 | 37347 ft | 467 kts | 186° |
| 2026-05-04 10:31 | 48.78717 | 12.50723 | 36851 ft | 464 kts | 186° |
| 2026-05-04 10:31 | 48.75497 | 12.50480 | 36355 ft | 461 kts | 186° |
| 2026-05-04 10:32 | 48.56267 | 12.49019 | 32318 ft | 462 kts | 186° |
| 2026-05-04 10:33 | 48.53049 | 12.48775 | 31605 ft | 462 kts | 186° |
| 2026-05-04 10:33 | 48.49839 | 12.48532 | 30896 ft | 463 kts | 186° |
| 2026-05-04 10:33 | 48.46699 | 12.48089 | 30421 ft | 454 kts | 194° |
| 2026-05-04 10:33 | 48.43708 | 12.46708 | 29932 ft | 445 kts | 207° |
| 2026-05-04 10:34 | 48.41106 | 12.44399 | 29388 ft | 437 kts | 217° |
| 2026-05-04 10:34 | 48.38689 | 12.41665 | 28895 ft | 431 kts | 220° |
| 2026-05-04 10:34 | 48.36390 | 12.38823 | 28408 ft | 426 kts | 221° |
| 2026-05-04 10:34 | 48.34172 | 12.35958 | 27939 ft | 421 kts | 222° |
| 2026-05-04 10:35 | 48.31983 | 12.33093 | 27457 ft | 417 kts | 222° |
| 2026-05-04 10:35 | 48.29805 | 12.30248 | 26983 ft | 413 kts | 222° |
| 2026-05-04 10:35 | 48.27650 | 12.27458 | 26502 ft | 409 kts | 221° |
| 2026-05-04 10:35 | 48.25494 | 12.24690 | 26035 ft | 406 kts | 221° |
| 2026-05-04 10:36 | 48.23349 | 12.21955 | 25548 ft | 403 kts | 221° |
| 2026-05-04 10:36 | 48.21227 | 12.19264 | 25098 ft | 401 kts | 221° |
| 2026-05-04 10:36 | 48.19124 | 12.16604 | 24615 ft | 398 kts | 220° |
| 2026-05-04 10:36 | 48.17007 | 12.13932 | 24144 ft | 396 kts | 220° |
| 2026-05-04 10:37 | 48.14905 | 12.11281 | 23678 ft | 395 kts | 220° |
| 2026-05-04 10:37 | 48.12808 | 12.08639 | 23143 ft | 392 kts | 220° |
| 2026-05-04 10:37 | 48.10729 | 12.06022 | 22681 ft | 388 kts | 220° |
| 2026-05-04 10:37 | 48.08673 | 12.03439 | 22208 ft | 385 kts | 220° |
| 2026-05-04 10:39 | 47.96708 | 11.88450 | 19520 ft | 366 kts | 220° |
| 2026-05-04 10:39 | 47.94757 | 11.86014 | 19077 ft | 364 kts | 220° |
| 2026-05-04 10:39 | 47.92822 | 11.83606 | 18645 ft | 362 kts | 219° |
| 2026-05-04 10:40 | 47.90733 | 11.81545 | 18226 ft | 360 kts | 208° |
| 2026-05-04 10:40 | 47.88389 | 11.80286 | 17768 ft | 359 kts | 193° |
| 2026-05-04 10:40 | 47.85926 | 11.79692 | 17320 ft | 356 kts | 188° |
| 2026-05-04 10:40 | 47.83459 | 11.79393 | 16882 ft | 354 kts | 185° |
| 2026-05-04 10:41 | 47.81014 | 11.79254 | 16467 ft | 351 kts | 183° |
| 2026-05-04 10:41 | 47.78580 | 11.79178 | 16044 ft | 347 kts | 183° |
| 2026-05-04 10:41 | 47.76176 | 11.79110 | 15627 ft | 344 kts | 183° |
| 2026-05-04 10:41 | 47.73821 | 11.79029 | 15225 ft | 341 kts | 183° |
| 2026-05-04 10:42 | 47.71471 | 11.78945 | 14804 ft | 338 kts | 181° |
| 2026-05-04 10:42 | 47.69121 | 11.79176 | 14368 ft | 338 kts | 176° |
| 2026-05-04 10:42 | 47.66791 | 11.79544 | 13943 ft | 336 kts | 175° |
| 2026-05-04 10:42 | 47.64466 | 11.79946 | 13489 ft | 334 kts | 174° |
| 2026-05-04 10:43 | 47.62188 | 11.80359 | 13112 ft | 331 kts | 175° |
| 2026-05-04 10:44 | 47.46617 | 11.83188 | 12400 ft | 327 kts | 175° |
| 2026-05-04 10:45 | 47.44341 | 11.83598 | 11748 ft | 331 kts | 175° |
| 2026-05-04 10:45 | 47.41309 | 11.84148 | 10929 ft | 333 kts | 174° |
| 2026-05-04 10:45 | 47.39783 | 11.84425 | 10690 ft | 329 kts | 174° |
| 2026-05-04 10:45 | 47.37553 | 11.84831 | 10551 ft | 316 kts | 175° |
| 2026-05-04 10:46 | 47.35413 | 11.84783 | 10398 ft | 302 kts | 194° |
| 2026-05-04 10:46 | 47.33629 | 11.83353 | 10208 ft | 291 kts | 224° |
| 2026-05-04 10:46 | 47.32611 | 11.80852 | 9915 ft | 283 kts | 252° |
| 2026-05-04 10:46 | 47.32200 | 11.78059 | 9809 ft | 274 kts | 256° |
| 2026-05-04 10:47 | 47.31875 | 11.75340 | 9640 ft | 264 kts | 258° |
| 2026-05-04 10:47 | 47.31557 | 11.72725 | 9585 ft | 255 kts | 256° |
| 2026-05-04 10:47 | 47.31218 | 11.70198 | 9419 ft | 250 kts | 255° |
| 2026-05-04 10:47 | 47.30861 | 11.67672 | 9019 ft | 252 kts | 256° |
| 2026-05-04 10:49 | 47.28492 | 11.51595 | 7373 ft | 223 kts | 253° |
| 2026-05-04 10:49 | 47.28136 | 11.49354 | 6920 ft | 222 kts | 253° |
| 2026-05-04 10:50 | 47.27841 | 11.47160 | 6560 ft | 216 kts | 255° |
| 2026-05-04 10:51 | 47.23856 | 11.37631 | 4029 ft | 195 kts | 118° |
| 2026-05-04 10:52 | 47.23990 | 11.39682 | 3203 ft | 228 kts | 60° |
| 2026-05-04 10:52 | 47.24717 | 11.41528 | 3380 ft | 196 kts | 67° |
| 2026-05-04 10:52 | 47.25122 | 11.43276 | 3363 ft | 171 kts | 74° |
| 2026-05-04 10:54 | 47.26261 | 11.36602 | 2120 ft | 162 kts | 257° |
| 2026-05-04 10:54 | 47.26089 | 11.35012 | 1904 ft | 149 kts | 259° |
| 2026-05-04 10:56 | 47.25928 | 11.33560 | 1903 ft | 25 kts | 79° |
| 2026-05-04 10:56 | 47.25865 | 11.33772 | 1895 ft | 23 kts | 127° |
| 2026-05-04 10:56 | 47.25778 | 11.33968 | 1895 ft | 22 kts | 107° |
| 2026-05-04 10:57 | 47.25785 | 11.34186 | 1902 ft | 21 kts | 81° |
| 2026-05-04 10:57 | 47.25808 | 11.34397 | 1898 ft | 21 kts | 81° |
| 2026-05-04 10:57 | 47.25830 | 11.34609 | 1910 ft | 21 kts | 81° |
| 2026-05-04 10:57 | 47.25852 | 11.34817 | 1897 ft | 21 kts | 81° |
| 2026-05-04 10:58 | 47.25873 | 11.35027 | 1908 ft | 17 kts | 82° |
| 2026-05-04 10:58 | 47.25867 | 11.35092 | 1904 ft | 5 kts | 125° |
| 2026-05-04 10:58 | 47.25837 | 11.35106 | 1901 ft | 5 kts | 169° |
| 2026-05-04 10:58 | 47.25826 | 11.35110 | 1904 ft | 0 kts | 169° |